sensor_id;sensor_type;location;lat;lon;timestamp;temperature;humidity
15239;DHT22;7722;53.274;9.500;2023-12-20T00:02:25;4.60;99.90
15239;DHT22;7722;53.274;9.500;2023-12-20T00:04:53;4.60;99.90
15239;DHT22;7722;53.274;9.500;2023-12-20T00:07:20;4.50;99.90
15239;DHT22;7722;53.274;9.500;2023-12-20T00:09:47;4.50;99.90
15239;DHT22;7722;53.274;9.500;2023-12-20T00:12:15;4.50;99.90
15239;DHT22;7722;53.274;9.500;2023-12-20T00:14:42;4.40;99.90
15239;DHT22;7722;53.274;9.500;2023-12-20T00:17:09;4.30;99.90
15239;DHT22;7722;53.274;9.500;2023-12-20T00:19:36;4.30;99.90
15239;DHT22;7722;53.274;9.500;2023-12-20T00:22:04;4.30;99.90
15239;DHT22;7722;53.274;9.500;2023-12-20T00:24:32;4.30;99.90
15239;DHT22;7722;53.274;9.500;2023-12-20T00:26:59;4.30;99.90
15239;DHT22;7722;53.274;9.500;2023-12-20T00:29:26;4.20;99.90
15239;DHT22;7722;53.274;9.500;2023-12-20T00:31:53;4.30;99.90
15239;DHT22;7722;53.274;9.500;2023-12-20T00:34:20;4.30;99.90
15239;DHT22;7722;53.274;9.500;2023-12-20T00:36:47;4.40;99.90
15239;DHT22;7722;53.274;9.500;2023-12-20T00:39:16;4.50;99.90
15239;DHT22;7722;53.274;9.500;2023-12-20T00:41:43;4.50;99.90
15239;DHT22;7722;53.274;9.500;2023-12-20T00:44:10;4.60;99.90
15239;DHT22;7722;53.274;9.500;2023-12-20T00:46:37;4.60;99.90
15239;DHT22;7722;53.274;9.500;2023-12-20T00:49:04;4.70;99.90
15239;DHT22;7722;53.274;9.500;2023-12-20T00:51:31;4.70;99.90
15239;DHT22;7722;53.274;9.500;2023-12-20T00:53:58;4.70;99.90
15239;DHT22;7722;53.274;9.500;2023-12-20T00:56:27;4.70;99.90
15239;DHT22;7722;53.274;9.500;2023-12-20T00:58:54;4.70;99.90
15239;DHT22;7722;53.274;9.500;2023-12-20T01:01:22;4.60;99.90
15239;DHT22;7722;53.274;9.500;2023-12-20T01:03:49;4.60;99.90
15239;DHT22;7722;53.274;9.500;2023-12-20T01:06:17;4.60;99.90
15239;DHT22;7722;53.274;9.500;2023-12-20T01:08:45;4.70;99.90
15239;DHT22;7722;53.274;9.500;2023-12-20T01:11:12;4.70;99.90
15239;DHT22;7722;53.274;9.500;2023-12-20T01:13:40;4.70;99.90
15239;DHT22;7722;53.274;9.500;2023-12-20T01:16:10;4.70;99.90
15239;DHT22;7722;53.274;9.500;2023-12-20T01:18:37;4.70;99.90
15239;DHT22;7722;53.274;9.500;2023-12-20T01:21:04;4.70;99.90
15239;DHT22;7722;53.274;9.500;2023-12-20T01:23:32;4.70;99.90
15239;DHT22;7722;53.274;9.500;2023-12-20T01:25:59;4.70;99.90
15239;DHT22;7722;53.274;9.500;2023-12-20T01:31:08;4.60;99.90
15239;DHT22;7722;53.274;9.500;2023-12-20T01:33:37;4.50;99.90
15239;DHT22;7722;53.274;9.500;2023-12-20T01:36:05;4.50;99.90
15239;DHT22;7722;53.274;9.500;2023-12-20T01:38:32;4.50;99.90
15239;DHT22;7722;53.274;9.500;2023-12-20T01:40:59;4.50;99.90
15239;DHT22;7722;53.274;9.500;2023-12-20T01:43:27;4.60;99.90
15239;DHT22;7722;53.274;9.500;2023-12-20T01:45:55;4.60;99.90
15239;DHT22;7722;53.274;9.500;2023-12-20T01:48:24;4.60;99.90
15239;DHT22;7722;53.274;9.500;2023-12-20T01:50:52;4.50;99.90
15239;DHT22;7722;53.274;9.500;2023-12-20T01:53:21;4.60;99.90
15239;DHT22;7722;53.274;9.500;2023-12-20T01:55:52;4.50;99.90
15239;DHT22;7722;53.274;9.500;2023-12-20T01:58:21;4.50;99.90
15239;DHT22;7722;53.274;9.500;2023-12-20T02:00:49;4.50;99.90
15239;DHT22;7722;53.274;9.500;2023-12-20T02:03:17;4.50;99.90
15239;DHT22;7722;53.274;9.500;2023-12-20T02:05:45;4.40;99.90
15239;DHT22;7722;53.274;9.500;2023-12-20T02:08:13;4.40;99.90
15239;DHT22;7722;53.274;9.500;2023-12-20T02:10:41;4.30;99.90
15239;DHT22;7722;53.274;9.500;2023-12-20T02:13:09;4.30;99.90
15239;DHT22;7722;53.274;9.500;2023-12-20T02:15:36;4.20;99.90
15239;DHT22;7722;53.274;9.500;2023-12-20T02:18:04;4.30;99.90
15239;DHT22;7722;53.274;9.500;2023-12-20T02:20:32;4.30;99.90
15239;DHT22;7722;53.274;9.500;2023-12-20T02:23:01;4.30;99.90
15239;DHT22;7722;53.274;9.500;2023-12-20T02:25:28;4.30;99.90
15239;DHT22;7722;53.274;9.500;2023-12-20T02:27:56;4.40;99.90
15239;DHT22;7722;53.274;9.500;2023-12-20T02:30:24;4.30;99.90
15239;DHT22;7722;53.274;9.500;2023-12-20T02:32:51;4.30;99.90
15239;DHT22;7722;53.274;9.500;2023-12-20T02:35:23;4.30;99.90
15239;DHT22;7722;53.274;9.500;2023-12-20T02:37:50;4.40;99.90
15239;DHT22;7722;53.274;9.500;2023-12-20T02:40:19;4.40;99.90
15239;DHT22;7722;53.274;9.500;2023-12-20T02:42:47;4.40;99.90
15239;DHT22;7722;53.274;9.500;2023-12-20T02:45:15;4.30;99.90
15239;DHT22;7722;53.274;9.500;2023-12-20T02:47:42;4.30;99.90
15239;DHT22;7722;53.274;9.500;2023-12-20T02:50:09;4.20;99.90
15239;DHT22;7722;53.274;9.500;2023-12-20T02:52:36;4.30;99.90
15239;DHT22;7722;53.274;9.500;2023-12-20T02:55:07;4.30;99.90
15239;DHT22;7722;53.274;9.500;2023-12-20T02:57:36;4.30;99.90
15239;DHT22;7722;53.274;9.500;2023-12-20T03:00:08;4.40;99.90
15239;DHT22;7722;53.274;9.500;2023-12-20T03:02:36;4.40;99.90
15239;DHT22;7722;53.274;9.500;2023-12-20T03:05:03;4.40;99.90
15239;DHT22;7722;53.274;9.500;2023-12-20T03:07:31;4.50;99.90
15239;DHT22;7722;53.274;9.500;2023-12-20T03:09:58;4.50;99.90
15239;DHT22;7722;53.274;9.500;2023-12-20T03:12:25;4.50;99.90
15239;DHT22;7722;53.274;9.500;2023-12-20T03:14:54;4.50;99.90
15239;DHT22;7722;53.274;9.500;2023-12-20T03:17:21;4.50;99.90
15239;DHT22;7722;53.274;9.500;2023-12-20T03:19:48;4.50;99.90
15239;DHT22;7722;53.274;9.500;2023-12-20T03:22:15;4.50;99.90
15239;DHT22;7722;53.274;9.500;2023-12-20T03:24:43;4.60;99.90
15239;DHT22;7722;53.274;9.500;2023-12-20T03:27:11;4.50;99.90
15239;DHT22;7722;53.274;9.500;2023-12-20T03:29:38;4.60;99.90
15239;DHT22;7722;53.274;9.500;2023-12-20T03:32:07;4.60;99.90
15239;DHT22;7722;53.274;9.500;2023-12-20T03:34:35;4.70;99.90
15239;DHT22;7722;53.274;9.500;2023-12-20T03:37:03;4.70;99.90
15239;DHT22;7722;53.274;9.500;2023-12-20T03:39:30;4.70;99.90
15239;DHT22;7722;53.274;9.500;2023-12-20T03:41:57;4.70;99.90
15239;DHT22;7722;53.274;9.500;2023-12-20T03:44:25;4.80;99.90
15239;DHT22;7722;53.274;9.500;2023-12-20T03:46:52;4.80;99.90
15239;DHT22;7722;53.274;9.500;2023-12-20T03:49:20;4.80;99.90
15239;DHT22;7722;53.274;9.500;2023-12-20T03:51:47;4.80;99.90
15239;DHT22;7722;53.274;9.500;2023-12-20T03:54:15;4.90;99.90
15239;DHT22;7722;53.274;9.500;2023-12-20T03:56:42;5.00;99.90
15239;DHT22;7722;53.274;9.500;2023-12-20T03:59:09;5.00;99.90
15239;DHT22;7722;53.274;9.500;2023-12-20T04:01:36;5.00;99.90
15239;DHT22;7722;53.274;9.500;2023-12-20T04:04:05;5.10;99.90
15239;DHT22;7722;53.274;9.500;2023-12-20T04:06:33;5.10;99.90
15239;DHT22;7722;53.274;9.500;2023-12-20T04:09:00;5.10;99.90
15239;DHT22;7722;53.274;9.500;2023-12-20T04:11:28;5.10;99.90
15239;DHT22;7722;53.274;9.500;2023-12-20T04:13:55;5.10;99.90
15239;DHT22;7722;53.274;9.500;2023-12-20T04:16:22;5.10;99.90
15239;DHT22;7722;53.274;9.500;2023-12-20T04:18:50;5.10;99.90
15239;DHT22;7722;53.274;9.500;2023-12-20T04:21:17;5.10;99.90
15239;DHT22;7722;53.274;9.500;2023-12-20T04:23:45;5.10;99.90
15239;DHT22;7722;53.274;9.500;2023-12-20T04:26:12;5.10;99.90
15239;DHT22;7722;53.274;9.500;2023-12-20T04:28:39;5.10;99.90
15239;DHT22;7722;53.274;9.500;2023-12-20T04:31:07;5.20;99.90
15239;DHT22;7722;53.274;9.500;2023-12-20T04:33:34;5.20;99.90
15239;DHT22;7722;53.274;9.500;2023-12-20T04:36:01;5.20;99.90
15239;DHT22;7722;53.274;9.500;2023-12-20T04:38:29;5.20;99.90
15239;DHT22;7722;53.274;9.500;2023-12-20T04:40:58;5.20;99.90
15239;DHT22;7722;53.274;9.500;2023-12-20T04:43:26;5.30;99.90
15239;DHT22;7722;53.274;9.500;2023-12-20T04:45:55;5.30;99.90
15239;DHT22;7722;53.274;9.500;2023-12-20T04:48:22;5.30;99.90
15239;DHT22;7722;53.274;9.500;2023-12-20T04:50:49;5.30;99.90
15239;DHT22;7722;53.274;9.500;2023-12-20T04:53:16;5.30;99.90
15239;DHT22;7722;53.274;9.500;2023-12-20T04:55:44;5.30;99.90
15239;DHT22;7722;53.274;9.500;2023-12-20T04:58:12;5.30;99.90
15239;DHT22;7722;53.274;9.500;2023-12-20T05:00:39;5.40;99.90
15239;DHT22;7722;53.274;9.500;2023-12-20T05:03:06;5.40;99.90
15239;DHT22;7722;53.274;9.500;2023-12-20T05:05:35;5.40;99.90
15239;DHT22;7722;53.274;9.500;2023-12-20T05:08:02;5.50;99.90
15239;DHT22;7722;53.274;9.500;2023-12-20T05:10:29;5.50;99.90
15239;DHT22;7722;53.274;9.500;2023-12-20T05:12:57;5.50;99.90
15239;DHT22;7722;53.274;9.500;2023-12-20T05:15:25;5.40;99.90
15239;DHT22;7722;53.274;9.500;2023-12-20T05:17:52;5.40;99.90
15239;DHT22;7722;53.274;9.500;2023-12-20T05:20:19;5.40;99.90
15239;DHT22;7722;53.274;9.500;2023-12-20T05:25:14;5.40;99.90
15239;DHT22;7722;53.274;9.500;2023-12-20T05:30:14;5.50;99.90
15239;DHT22;7722;53.274;9.500;2023-12-20T05:32:43;5.50;99.90
15239;DHT22;7722;53.274;9.500;2023-12-20T05:35:10;5.50;99.90
15239;DHT22;7722;53.274;9.500;2023-12-20T05:37:37;5.50;99.90
15239;DHT22;7722;53.274;9.500;2023-12-20T05:40:05;5.50;99.90
15239;DHT22;7722;53.274;9.500;2023-12-20T05:42:35;5.50;99.90
15239;DHT22;7722;53.274;9.500;2023-12-20T05:45:04;5.50;99.90
15239;DHT22;7722;53.274;9.500;2023-12-20T05:47:31;5.40;99.90
15239;DHT22;7722;53.274;9.500;2023-12-20T05:49:59;5.50;99.90
15239;DHT22;7722;53.274;9.500;2023-12-20T05:52:27;5.50;99.90
15239;DHT22;7722;53.274;9.500;2023-12-20T05:54:54;5.50;99.90
15239;DHT22;7722;53.274;9.500;2023-12-20T05:57:21;5.50;99.90
15239;DHT22;7722;53.274;9.500;2023-12-20T05:59:49;5.50;99.90
15239;DHT22;7722;53.274;9.500;2023-12-20T06:02:16;5.50;99.90
15239;DHT22;7722;53.274;9.500;2023-12-20T06:04:43;5.50;99.90
15239;DHT22;7722;53.274;9.500;2023-12-20T06:07:12;5.50;99.90
15239;DHT22;7722;53.274;9.500;2023-12-20T06:09:40;5.50;99.90
15239;DHT22;7722;53.274;9.500;2023-12-20T06:12:07;5.50;99.90
15239;DHT22;7722;53.274;9.500;2023-12-20T06:14:35;5.50;99.90
15239;DHT22;7722;53.274;9.500;2023-12-20T06:17:02;5.50;99.90
15239;DHT22;7722;53.274;9.500;2023-12-20T06:19:29;5.60;99.90
15239;DHT22;7722;53.274;9.500;2023-12-20T06:21:56;5.60;99.90
15239;DHT22;7722;53.274;9.500;2023-12-20T06:24:25;5.60;99.90
15239;DHT22;7722;53.274;9.500;2023-12-20T06:26:54;5.60;99.90
15239;DHT22;7722;53.274;9.500;2023-12-20T06:29:22;5.60;99.90
15239;DHT22;7722;53.274;9.500;2023-12-20T06:31:49;5.60;99.90
15239;DHT22;7722;53.274;9.500;2023-12-20T06:34:16;5.60;99.90
15239;DHT22;7722;53.274;9.500;2023-12-20T06:36:43;5.60;99.90
15239;DHT22;7722;53.274;9.500;2023-12-20T06:39:10;5.60;99.90
15239;DHT22;7722;53.274;9.500;2023-12-20T06:41:41;5.60;99.90
15239;DHT22;7722;53.274;9.500;2023-12-20T06:44:08;5.60;99.90
15239;DHT22;7722;53.274;9.500;2023-12-20T06:46:35;5.60;99.90
15239;DHT22;7722;53.274;9.500;2023-12-20T06:49:02;5.60;99.90
15239;DHT22;7722;53.274;9.500;2023-12-20T06:51:29;5.60;99.90
15239;DHT22;7722;53.274;9.500;2023-12-20T06:53:57;5.60;99.90
15239;DHT22;7722;53.274;9.500;2023-12-20T06:56:24;5.60;99.90
15239;DHT22;7722;53.274;9.500;2023-12-20T06:58:53;5.70;99.90
15239;DHT22;7722;53.274;9.500;2023-12-20T07:01:21;5.70;99.90
15239;DHT22;7722;53.274;9.500;2023-12-20T07:03:48;5.70;99.90
15239;DHT22;7722;53.274;9.500;2023-12-20T07:06:15;5.70;99.90
15239;DHT22;7722;53.274;9.500;2023-12-20T07:08:42;5.70;99.90
15239;DHT22;7722;53.274;9.500;2023-12-20T07:11:09;5.70;99.90
15239;DHT22;7722;53.274;9.500;2023-12-20T07:18:49;5.70;99.90
15239;DHT22;7722;53.274;9.500;2023-12-20T07:21:18;5.70;99.90
15239;DHT22;7722;53.274;9.500;2023-12-20T07:23:45;5.70;99.90
15239;DHT22;7722;53.274;9.500;2023-12-20T07:26:12;5.80;99.90
15239;DHT22;7722;53.274;9.500;2023-12-20T07:31:07;5.80;99.90
15239;DHT22;7722;53.274;9.500;2023-12-20T07:33:34;5.90;99.90
15239;DHT22;7722;53.274;9.500;2023-12-20T07:36:03;5.80;99.90
15239;DHT22;7722;53.274;9.500;2023-12-20T07:38:30;5.80;99.90
15239;DHT22;7722;53.274;9.500;2023-12-20T07:41:00;5.90;99.90
15239;DHT22;7722;53.274;9.500;2023-12-20T07:43:29;5.90;99.90
15239;DHT22;7722;53.274;9.500;2023-12-20T07:46:01;5.90;99.90
15239;DHT22;7722;53.274;9.500;2023-12-20T07:48:32;5.90;99.90
15239;DHT22;7722;53.274;9.500;2023-12-20T07:51:05;6.00;99.90
15239;DHT22;7722;53.274;9.500;2023-12-20T07:53:37;6.00;99.90
15239;DHT22;7722;53.274;9.500;2023-12-20T07:56:15;6.00;99.90
15239;DHT22;7722;53.274;9.500;2023-12-20T07:58:43;6.00;99.90
15239;DHT22;7722;53.274;9.500;2023-12-20T08:01:12;6.10;99.90
15239;DHT22;7722;53.274;9.500;2023-12-20T08:03:40;6.10;99.90
15239;DHT22;7722;53.274;9.500;2023-12-20T08:06:08;6.10;99.90
15239;DHT22;7722;53.274;9.500;2023-12-20T08:08:35;6.20;99.90
15239;DHT22;7722;53.274;9.500;2023-12-20T08:11:03;6.20;99.90
15239;DHT22;7722;53.274;9.500;2023-12-20T08:13:30;6.20;99.90
15239;DHT22;7722;53.274;9.500;2023-12-20T08:15:57;6.20;99.90
15239;DHT22;7722;53.274;9.500;2023-12-20T08:18:25;6.20;99.90
15239;DHT22;7722;53.274;9.500;2023-12-20T08:20:52;6.20;99.90
15239;DHT22;7722;53.274;9.500;2023-12-20T08:23:21;6.30;99.90
15239;DHT22;7722;53.274;9.500;2023-12-20T08:25:48;6.20;99.90
15239;DHT22;7722;53.274;9.500;2023-12-20T08:28:15;6.30;99.90
15239;DHT22;7722;53.274;9.500;2023-12-20T08:30:42;6.30;99.90
15239;DHT22;7722;53.274;9.500;2023-12-20T08:33:09;6.30;99.90
15239;DHT22;7722;53.274;9.500;2023-12-20T08:35:38;6.30;99.90
15239;DHT22;7722;53.274;9.500;2023-12-20T08:38:06;6.30;99.90
15239;DHT22;7722;53.274;9.500;2023-12-20T08:40:34;6.20;99.90
15239;DHT22;7722;53.274;9.500;2023-12-20T08:43:01;6.20;99.90
15239;DHT22;7722;53.274;9.500;2023-12-20T08:45:28;6.20;99.90
15239;DHT22;7722;53.274;9.500;2023-12-20T08:47:55;6.10;99.90
15239;DHT22;7722;53.274;9.500;2023-12-20T08:50:22;6.10;99.90
15239;DHT22;7722;53.274;9.500;2023-12-20T08:52:51;6.10;99.90
15239;DHT22;7722;53.274;9.500;2023-12-20T08:55:20;6.10;99.90
15239;DHT22;7722;53.274;9.500;2023-12-20T08:57:48;6.10;99.90
15239;DHT22;7722;53.274;9.500;2023-12-20T09:00:16;6.10;99.90
15239;DHT22;7722;53.274;9.500;2023-12-20T09:02:46;6.10;99.90
15239;DHT22;7722;53.274;9.500;2023-12-20T09:05:13;6.10;99.90
15239;DHT22;7722;53.274;9.500;2023-12-20T09:07:40;6.10;99.90
15239;DHT22;7722;53.274;9.500;2023-12-20T09:10:08;6.10;99.90
15239;DHT22;7722;53.274;9.500;2023-12-20T09:12:35;6.10;99.90
15239;DHT22;7722;53.274;9.500;2023-12-20T09:15:07;6.10;99.90
15239;DHT22;7722;53.274;9.500;2023-12-20T09:17:34;6.20;99.90
15239;DHT22;7722;53.274;9.500;2023-12-20T09:20:02;6.20;99.90
15239;DHT22;7722;53.274;9.500;2023-12-20T09:22:31;6.20;99.90
15239;DHT22;7722;53.274;9.500;2023-12-20T09:24:59;6.20;99.90
15239;DHT22;7722;53.274;9.500;2023-12-20T09:27:26;6.10;99.90
15239;DHT22;7722;53.274;9.500;2023-12-20T09:29:53;6.00;99.90
15239;DHT22;7722;53.274;9.500;2023-12-20T09:32:21;5.90;99.90
15239;DHT22;7722;53.274;9.500;2023-12-20T09:34:48;5.90;99.90
15239;DHT22;7722;53.274;9.500;2023-12-20T09:37:15;5.60;99.90
15239;DHT22;7722;53.274;9.500;2023-12-20T09:39:42;4.80;99.90
15239;DHT22;7722;53.274;9.500;2023-12-20T09:42:12;4.50;99.90
15239;DHT22;7722;53.274;9.500;2023-12-20T09:44:43;4.40;99.90
15239;DHT22;7722;53.274;9.500;2023-12-20T09:47:10;4.40;99.90
15239;DHT22;7722;53.274;9.500;2023-12-20T09:49:39;4.40;99.90
15239;DHT22;7722;53.274;9.500;2023-12-20T09:52:08;4.50;99.90
15239;DHT22;7722;53.274;9.500;2023-12-20T09:54:36;4.50;99.90
15239;DHT22;7722;53.274;9.500;2023-12-20T09:57:04;4.60;99.90
15239;DHT22;7722;53.274;9.500;2023-12-20T09:59:34;4.60;99.90
15239;DHT22;7722;53.274;9.500;2023-12-20T10:02:02;4.70;99.90
15239;DHT22;7722;53.274;9.500;2023-12-20T10:04:32;4.80;99.90
15239;DHT22;7722;53.274;9.500;2023-12-20T10:07:03;4.80;99.90
15239;DHT22;7722;53.274;9.500;2023-12-20T10:09:32;4.90;99.90
15239;DHT22;7722;53.274;9.500;2023-12-20T10:12:00;4.90;99.90
15239;DHT22;7722;53.274;9.500;2023-12-20T10:14:27;5.00;99.90
15239;DHT22;7722;53.274;9.500;2023-12-20T10:17:04;5.00;99.90
15239;DHT22;7722;53.274;9.500;2023-12-20T10:19:32;5.00;99.90
15239;DHT22;7722;53.274;9.500;2023-12-20T10:21:59;4.90;99.90
15239;DHT22;7722;53.274;9.500;2023-12-20T10:24:30;5.00;99.90
15239;DHT22;7722;53.274;9.500;2023-12-20T10:27:03;5.10;99.90
15239;DHT22;7722;53.274;9.500;2023-12-20T10:29:34;5.10;99.90
15239;DHT22;7722;53.274;9.500;2023-12-20T10:32:22;5.10;99.90
15239;DHT22;7722;53.274;9.500;2023-12-20T10:34:49;5.00;99.90
15239;DHT22;7722;53.274;9.500;2023-12-20T10:37:16;5.10;99.90
15239;DHT22;7722;53.274;9.500;2023-12-20T10:39:49;5.10;99.90
15239;DHT22;7722;53.274;9.500;2023-12-20T10:42:18;5.10;99.90
15239;DHT22;7722;53.274;9.500;2023-12-20T10:44:47;5.10;99.90
15239;DHT22;7722;53.274;9.500;2023-12-20T10:47:14;5.10;99.90
15239;DHT22;7722;53.274;9.500;2023-12-20T10:49:42;5.10;99.90
15239;DHT22;7722;53.274;9.500;2023-12-20T10:52:11;5.20;99.90
15239;DHT22;7722;53.274;9.500;2023-12-20T10:54:39;5.20;99.90
15239;DHT22;7722;53.274;9.500;2023-12-20T10:57:08;5.20;99.90
15239;DHT22;7722;53.274;9.500;2023-12-20T10:59:37;5.30;99.90
15239;DHT22;7722;53.274;9.500;2023-12-20T11:02:05;5.30;99.90
15239;DHT22;7722;53.274;9.500;2023-12-20T11:04:39;5.40;99.90
15239;DHT22;7722;53.274;9.500;2023-12-20T11:07:15;5.30;99.90
15239;DHT22;7722;53.274;9.500;2023-12-20T11:09:47;5.30;99.90
15239;DHT22;7722;53.274;9.500;2023-12-20T11:12:22;5.40;99.90
15239;DHT22;7722;53.274;9.500;2023-12-20T11:14:54;5.50;99.90
15239;DHT22;7722;53.274;9.500;2023-12-20T11:17:23;5.50;99.90
15239;DHT22;7722;53.274;9.500;2023-12-20T11:20:10;5.60;99.90
15239;DHT22;7722;53.274;9.500;2023-12-20T11:22:51;5.60;99.90
15239;DHT22;7722;53.274;9.500;2023-12-20T11:25:18;5.80;99.90
15239;DHT22;7722;53.274;9.500;2023-12-20T11:28:07;5.80;99.90
15239;DHT22;7722;53.274;9.500;2023-12-20T11:30:41;5.90;99.90
15239;DHT22;7722;53.274;9.500;2023-12-20T11:33:09;6.10;99.90
15239;DHT22;7722;53.274;9.500;2023-12-20T11:35:36;6.30;99.90
15239;DHT22;7722;53.274;9.500;2023-12-20T11:38:07;6.30;99.90
15239;DHT22;7722;53.274;9.500;2023-12-20T11:40:35;6.30;99.90
15239;DHT22;7722;53.274;9.500;2023-12-20T11:43:11;6.40;99.90
15239;DHT22;7722;53.274;9.500;2023-12-20T11:45:49;6.60;99.90
15239;DHT22;7722;53.274;9.500;2023-12-20T11:48:17;6.60;99.90
15239;DHT22;7722;53.274;9.500;2023-12-20T11:50:45;6.70;99.90
15239;DHT22;7722;53.274;9.500;2023-12-20T11:53:12;6.60;99.90
15239;DHT22;7722;53.274;9.500;2023-12-20T11:55:39;6.60;99.90
15239;DHT22;7722;53.274;9.500;2023-12-20T11:58:08;6.60;99.90
15239;DHT22;7722;53.274;9.500;2023-12-20T12:00:35;6.50;99.90
15239;DHT22;7722;53.274;9.500;2023-12-20T12:03:03;6.50;99.90
15239;DHT22;7722;53.274;9.500;2023-12-20T12:05:31;6.50;99.90
15239;DHT22;7722;53.274;9.500;2023-12-20T12:07:58;6.60;99.90
15239;DHT22;7722;53.274;9.500;2023-12-20T12:10:25;6.60;99.90
15239;DHT22;7722;53.274;9.500;2023-12-20T12:12:53;6.70;99.90
15239;DHT22;7722;53.274;9.500;2023-12-20T12:15:21;6.60;99.90
15239;DHT22;7722;53.274;9.500;2023-12-20T12:17:54;6.60;99.90
15239;DHT22;7722;53.274;9.500;2023-12-20T12:20:22;6.80;99.90
15239;DHT22;7722;53.274;9.500;2023-12-20T12:22:58;6.80;99.90
15239;DHT22;7722;53.274;9.500;2023-12-20T12:25:25;6.80;99.90
15239;DHT22;7722;53.274;9.500;2023-12-20T12:27:53;6.60;99.90
15239;DHT22;7722;53.274;9.500;2023-12-20T12:30:22;6.60;99.90
15239;DHT22;7722;53.274;9.500;2023-12-20T12:32:50;6.60;99.90
15239;DHT22;7722;53.274;9.500;2023-12-20T12:35:17;6.70;99.90
15239;DHT22;7722;53.274;9.500;2023-12-20T12:37:45;6.70;99.90
15239;DHT22;7722;53.274;9.500;2023-12-20T12:40:13;6.80;99.90
15239;DHT22;7722;53.274;9.500;2023-12-20T12:42:41;6.90;99.90
15239;DHT22;7722;53.274;9.500;2023-12-20T12:45:09;6.90;99.90
15239;DHT22;7722;53.274;9.500;2023-12-20T12:47:38;7.20;99.90
15239;DHT22;7722;53.274;9.500;2023-12-20T12:50:06;7.20;99.90
15239;DHT22;7722;53.274;9.500;2023-12-20T12:52:34;7.30;99.90
15239;DHT22;7722;53.274;9.500;2023-12-20T12:55:01;7.30;99.90
15239;DHT22;7722;53.274;9.500;2023-12-20T12:57:30;7.10;99.90
15239;DHT22;7722;53.274;9.500;2023-12-20T12:59:57;7.00;99.90
15239;DHT22;7722;53.274;9.500;2023-12-20T13:02:24;6.90;99.90
15239;DHT22;7722;53.274;9.500;2023-12-20T13:04:53;6.90;99.90
15239;DHT22;7722;53.274;9.500;2023-12-20T13:07:20;6.80;99.90
15239;DHT22;7722;53.274;9.500;2023-12-20T13:09:47;6.90;99.90
15239;DHT22;7722;53.274;9.500;2023-12-20T13:12:14;7.00;99.90
15239;DHT22;7722;53.274;9.500;2023-12-20T13:14:41;7.00;99.90
15239;DHT22;7722;53.274;9.500;2023-12-20T13:17:08;7.00;99.90
15239;DHT22;7722;53.274;9.500;2023-12-20T13:19:35;7.00;99.90
15239;DHT22;7722;53.274;9.500;2023-12-20T13:22:04;7.30;99.90
15239;DHT22;7722;53.274;9.500;2023-12-20T13:24:32;7.20;99.90
15239;DHT22;7722;53.274;9.500;2023-12-20T13:26:59;7.10;99.90
15239;DHT22;7722;53.274;9.500;2023-12-20T13:32:01;7.10;99.90
15239;DHT22;7722;53.274;9.500;2023-12-20T13:34:29;7.30;99.90
15239;DHT22;7722;53.274;9.500;2023-12-20T13:36:56;7.00;99.90
15239;DHT22;7722;53.274;9.500;2023-12-20T13:39:25;6.90;99.90
15239;DHT22;7722;53.274;9.500;2023-12-20T13:41:52;6.80;99.90
15239;DHT22;7722;53.274;9.500;2023-12-20T13:44:19;6.70;99.90
15239;DHT22;7722;53.274;9.500;2023-12-20T13:46:46;6.70;99.90
15239;DHT22;7722;53.274;9.500;2023-12-20T13:49:15;6.60;99.90
15239;DHT22;7722;53.274;9.500;2023-12-20T13:51:42;6.60;99.90
15239;DHT22;7722;53.274;9.500;2023-12-20T13:54:09;6.70;99.90
15239;DHT22;7722;53.274;9.500;2023-12-20T13:56:38;6.70;99.90
15239;DHT22;7722;53.274;9.500;2023-12-20T13:59:05;6.70;99.90
15239;DHT22;7722;53.274;9.500;2023-12-20T14:01:32;6.60;99.90
15239;DHT22;7722;53.274;9.500;2023-12-20T14:03:59;6.50;99.90
15239;DHT22;7722;53.274;9.500;2023-12-20T14:06:26;6.40;99.90
15239;DHT22;7722;53.274;9.500;2023-12-20T14:08:53;6.30;99.90
15239;DHT22;7722;53.274;9.500;2023-12-20T14:11:20;6.20;99.90
15239;DHT22;7722;53.274;9.500;2023-12-20T14:13:48;6.20;99.90
15239;DHT22;7722;53.274;9.500;2023-12-20T14:16:15;6.10;99.90
15239;DHT22;7722;53.274;9.500;2023-12-20T14:18:43;6.00;99.90
15239;DHT22;7722;53.274;9.500;2023-12-20T14:21:10;5.90;99.90
15239;DHT22;7722;53.274;9.500;2023-12-20T14:23:37;5.90;99.90
15239;DHT22;7722;53.274;9.500;2023-12-20T14:26:04;5.90;99.90
15239;DHT22;7722;53.274;9.500;2023-12-20T14:28:31;6.00;99.90
15239;DHT22;7722;53.274;9.500;2023-12-20T14:30:59;5.90;99.90
15239;DHT22;7722;53.274;9.500;2023-12-20T14:33:26;6.00;99.90
15239;DHT22;7722;53.274;9.500;2023-12-20T14:35:53;6.00;99.90
15239;DHT22;7722;53.274;9.500;2023-12-20T14:38:20;5.90;99.90
15239;DHT22;7722;53.274;9.500;2023-12-20T14:40:47;5.80;99.90
15239;DHT22;7722;53.274;9.500;2023-12-20T14:43:14;5.80;99.90
15239;DHT22;7722;53.274;9.500;2023-12-20T14:45:42;5.70;99.90
15239;DHT22;7722;53.274;9.500;2023-12-20T14:48:10;5.50;99.90
15239;DHT22;7722;53.274;9.500;2023-12-20T14:50:37;5.50;99.90
15239;DHT22;7722;53.274;9.500;2023-12-20T14:53:06;5.50;99.90
15239;DHT22;7722;53.274;9.500;2023-12-20T14:55:33;5.40;99.90
15239;DHT22;7722;53.274;9.500;2023-12-20T14:58:00;5.40;99.90
15239;DHT22;7722;53.274;9.500;2023-12-20T15:00:27;5.30;99.90
15239;DHT22;7722;53.274;9.500;2023-12-20T15:02:55;5.30;99.90
15239;DHT22;7722;53.274;9.500;2023-12-20T15:05:24;5.30;99.90
15239;DHT22;7722;53.274;9.500;2023-12-20T15:07:52;5.30;99.90
15239;DHT22;7722;53.274;9.500;2023-12-20T15:10:19;5.20;99.90
15239;DHT22;7722;53.274;9.500;2023-12-20T15:12:46;5.00;99.90
15239;DHT22;7722;53.274;9.500;2023-12-20T15:15:13;5.00;99.90
15239;DHT22;7722;53.274;9.500;2023-12-20T15:17:41;4.90;99.90
15239;DHT22;7722;53.274;9.500;2023-12-20T15:20:09;4.80;99.90
15239;DHT22;7722;53.274;9.500;2023-12-20T15:22:38;4.70;99.90
15239;DHT22;7722;53.274;9.500;2023-12-20T15:25:08;4.70;99.90
15239;DHT22;7722;53.274;9.500;2023-12-20T15:27:35;4.70;99.90
15239;DHT22;7722;53.274;9.500;2023-12-20T15:30:04;4.60;99.90
15239;DHT22;7722;53.274;9.500;2023-12-20T15:32:32;4.50;99.90
15239;DHT22;7722;53.274;9.500;2023-12-20T15:35:02;4.60;99.90
15239;DHT22;7722;53.274;9.500;2023-12-20T15:37:29;4.60;99.90
15239;DHT22;7722;53.274;9.500;2023-12-20T15:39:58;4.50;99.90
15239;DHT22;7722;53.274;9.500;2023-12-20T15:42:26;4.50;99.90
15239;DHT22;7722;53.274;9.500;2023-12-20T15:44:53;4.50;99.90
15239;DHT22;7722;53.274;9.500;2023-12-20T15:47:20;4.50;99.90
15239;DHT22;7722;53.274;9.500;2023-12-20T15:49:47;4.60;99.90
15239;DHT22;7722;53.274;9.500;2023-12-20T15:52:15;4.60;99.90
15239;DHT22;7722;53.274;9.500;2023-12-20T15:54:42;4.70;99.90
15239;DHT22;7722;53.274;9.500;2023-12-20T15:57:11;4.70;99.90
15239;DHT22;7722;53.274;9.500;2023-12-20T15:59:41;4.70;99.90
15239;DHT22;7722;53.274;9.500;2023-12-20T16:02:08;4.70;99.90
15239;DHT22;7722;53.274;9.500;2023-12-20T16:04:35;4.70;99.90
15239;DHT22;7722;53.274;9.500;2023-12-20T16:07:03;4.60;99.90
15239;DHT22;7722;53.274;9.500;2023-12-20T16:09:30;4.70;99.90
15239;DHT22;7722;53.274;9.500;2023-12-20T16:11:57;4.70;99.90
15239;DHT22;7722;53.274;9.500;2023-12-20T16:14:25;4.70;99.90
15239;DHT22;7722;53.274;9.500;2023-12-20T16:16:55;4.80;99.90
15239;DHT22;7722;53.274;9.500;2023-12-20T16:19:22;4.80;99.90
15239;DHT22;7722;53.274;9.500;2023-12-20T16:21:49;4.80;99.90
15239;DHT22;7722;53.274;9.500;2023-12-20T16:24:16;4.90;99.90
15239;DHT22;7722;53.274;9.500;2023-12-20T16:26:43;5.00;99.90